This is the latest recevied weather packets stored in our database for station/object OE-11152. If no packets are shown the sender has not sent any weather packets the latest 10 day(s).
| Time | Temp. | Humidity | Pressure | Rain* | Wind** | Luminosity | Snow |
|---|---|---|---|---|---|---|---|
| 1787636490 | 16.11° C | 74% | 1008.8 hPa | 0 mm | - | 61 W/m² | - |
| 1787636117 | 16.11° C | 72% | 1008.9 hPa | 0 mm | - | 61 W/m² | - |
| 1787635517 | 15.56° C | 73% | 1008.9 hPa | 0 mm | - | 47 W/m² | - |
| 1787634691 | 15.56° C | 70% | 1008.9 hPa | 0 mm | - | 40 W/m² | - |
| 1787634318 | 15.56° C | 74% | 1009.1 hPa | 0 mm | - | 34 W/m² | - |
| 1787633718 | 15° C | 73% | 1009.2 hPa | 0 mm | - | 27 W/m² | - |
| 1787632891 | 15° C | 73% | 1009.4 hPa | 0 mm | - | 13 W/m² | - |
| 1787632518 | 15° C | 72% | 1009.2 hPa | 0 mm | - | 7 W/m² | - |
| 1787631918 | 15° C | 72% | 1009.3 hPa | 0 mm | - | 0 W/m² | - |
| 1787631091 | 15° C | 74% | 1009.6 hPa | 0 mm | - | 0 W/m² | - |
| 1787630718 | 15° C | 71% | 1009.6 hPa | 0 mm | - | 0 W/m² | - |
| 1787630118 | 15° C | 73% | 1009.7 hPa | 0 mm | - | 0 W/m² | - |
| 1787629518 | 15° C | 72% | 1009.7 hPa | 0 mm | - | 0 W/m² | - |
| 1787628918 | 15.56° C | 72% | 1009.5 hPa | 0 mm | - | 0 W/m² | - |
| 1787628317 | 16.67° C | 68% | 1009.3 hPa | 0 mm | - | 0 W/m² | - |
| 1787627490 | 16.11° C | 72% | 1009.4 hPa | 0 mm | - | 0 W/m² | - |
| 1787627117 | 16.67° C | 68% | 1009.2 hPa | 0 mm | - | 0 W/m² | - |
| 1787626518 | 16.67° C | 70% | 1009.3 hPa | 0 mm | - | 0 W/m² | - |
| 1787625690 | 16.11° C | 68% | 1009.8 hPa | 0 mm | - | 0 W/m² | - |
| 1787624717 | 17.22° C | 65% | 1009.5 hPa | 0 mm | - | 0 W/m² | - |
| 1787623890 | 17.22° C | 67% | 1009.6 hPa | 0 mm | - | 0 W/m² | - |
| 1787623517 | 16.67° C | 64% | 1009.8 hPa | 0 mm | - | 0 W/m² | - |
| 1787622917 | 17.22° C | 65% | 1010.1 hPa | 0 mm | - | 0 W/m² | - |
| 1787622091 | 17.22° C | 64% | 1010.3 hPa | 0 mm | - | 0 W/m² | - |
| 1787621718 | 17.22° C | 65% | 1010.1 hPa | 0 mm | - | 0 W/m² | - |
* Rain latest hour (hover to see other rain measurements)
** Current wind speed in m/s (hover to see current wind gust speed)